Darstellungsparameter: Aktuell verwendete Einstellungen:
Skalierung der Graphiken ... ?
xyx+y,   Skalierungsfaktor:      Skalierung: Modus: x, Faktor: 1
Darstellungszeitraum ... ?
Vom - - bis: - -   Zeitraum: 17.07.2014 - 17.07.2014
Min/Max/Avg-Anzeige ... ?
Zeige MMA aktuell
Zeige MMA Monat
Zeige MMA alles
Zeige --A aktuell
Zeige --A Monat
Zeige --A alles
Keine MMA-Anzeige
MMA:
Keine MMA-Graphiken
MMA-Basis: 17.07.2014 - 17.07.2014
Quicknavigation für Darstellung... ?
Tage:      1T, 2T, 3T, 5T -1T -2T -3T -5T +1T +2T +3T +5T
Wochen: 1W, 2W, 3W -1W -2W -3W +1W +2W +3W
Monate: 1M, 3M, 6M -1M -3M -6M +1M +3M +6M
Jahre:    1J, 3J, 5J, 10J -1J -3J -5J -10J +1J +3J +5J +10J
Nutze für die Darstellung ... ?
Originaldaten oder Mittelwerte auf ...
Stundenbasis Tagesbasis Wochenbasis
Monatsbasis Jahresbasis      Datenbasis: Original-Daten
Darstellen als:
Statistik (Auto) Statistik J:M      Darstellung:
Zur Graphik,    zurück zur Übersicht aller Sensoren.
 
Tabellarische Datenbersicht: ?
 
Sensor: Nr:Datum:Temp:Feuchte:Taupunkt:
Aussen-T/F 1 17-07-2014 07:05:00 14.5 C 95 % 13.71 C
2 17-07-2014 07:10:00 14.6 C 95 % 13.81 C
3 17-07-2014 07:15:00 14.6 C 95 % 13.81 C
4 17-07-2014 07:20:00 14.7 C 95 % 13.91 C
5 17-07-2014 07:25:00 14.7 C 95 % 13.91 C
6 17-07-2014 07:30:00 14.8 C 95 % 14.01 C
7 17-07-2014 07:35:00 14.9 C 95 % 14.11 C
8 17-07-2014 07:40:00 14.9 C 95 % 14.11 C
9 17-07-2014 07:45:00 15.1 C 95 % 14.31 C
10 17-07-2014 07:50:00 15.2 C 95 % 14.4 C
11 17-07-2014 07:55:00 15.3 C 95 % 14.5 C
12 17-07-2014 08:00:00 15.6 C 95 % 14.8 C
13 17-07-2014 08:05:00 15.8 C 94 % 14.84 C
14 17-07-2014 08:10:00 16.3 C 93 % 15.17 C
15 17-07-2014 08:15:00 16.6 C 92 % 15.3 C
16 17-07-2014 08:20:00 16.9 C 91 % 15.42 C
17 17-07-2014 08:25:00 17.1 C 90 % 15.45 C
18 17-07-2014 08:30:00 17.2 C 90 % 15.55 C
19 17-07-2014 08:35:00 17.3 C 89 % 15.47 C
20 17-07-2014 08:40:00 17.6 C 88 % 15.59 C
21 17-07-2014 08:45:00 17.9 C 88 % 15.88 C
22 17-07-2014 08:50:00 18.1 C 87 % 15.9 C
23 17-07-2014 08:55:00 18.3 C 86 % 15.92 C
24 17-07-2014 09:00:00 18.4 C 86 % 16.02 C
25 17-07-2014 09:05:00 18.6 C 86 % 16.21 C
Sensor: Nr:Datum:Temp:Feuchte:Taupunkt:
Aussen-T/F 26 17-07-2014 09:10:00 18.7 C 86 % 16.31 C
27 17-07-2014 09:15:00 18.7 C 86 % 16.31 C
28 17-07-2014 09:20:00 18.7 C 86 % 16.31 C
29 17-07-2014 09:25:00 18.7 C 86 % 16.31 C
30 17-07-2014 09:30:00 18.6 C 87 % 16.39 C
31 17-07-2014 09:35:00 18.6 C 88 % 16.57 C
32 17-07-2014 09:40:00 18.6 C 88 % 16.57 C
33 17-07-2014 09:45:00 18.8 C 87 % 16.59 C
34 17-07-2014 09:50:00 19.1 C 88 % 17.07 C
35 17-07-2014 09:55:00 19.1 C 87 % 16.89 C
36 17-07-2014 10:00:00 19.1 C 87 % 16.89 C
37 17-07-2014 10:10:00 20.9 C 81 % 17.52 C
38 17-07-2014 10:15:00 20.9 C 81 % 17.52 C
39 17-07-2014 10:20:00 20.9 C 81 % 17.52 C
40 17-07-2014 16:15:00 31.4 C 40 % 16.17 C
41 17-07-2014 16:20:00 31.4 C 47 % 18.73 C
42 17-07-2014 16:25:00 31.7 C 41 % 16.83 C
43 17-07-2014 16:30:00 31.7 C 40 % 16.44 C
44 17-07-2014 16:35:00 31.7 C 49 % 19.67 C
45 17-07-2014 16:40:00 31.4 C 44 % 17.67 C
46 17-07-2014 16:45:00 31.3 C 46 % 18.29 C
47 17-07-2014 16:50:00 31.2 C 48 % 18.88 C
48 17-07-2014 16:55:00 31.2 C 48 % 18.88 C
49 17-07-2014 17:00:00 31.3 C 39 % 15.69 C
50 17-07-2014 17:05:00 31.6 C 40 % 16.35 C
Sensor: Nr:Datum:Temp:Feuchte:Taupunkt:
Aussen-T/F 51 17-07-2014 17:10:00 31.9 C 41 % 17.01 C
52 17-07-2014 17:15:00 32 C 41 % 17.09 C
53 17-07-2014 17:20:00 31.9 C 41 % 17.01 C
54 17-07-2014 17:25:00 31.8 C 41 % 16.92 C
55 17-07-2014 17:30:00 31.8 C 39 % 16.13 C
56 17-07-2014 17:35:00 31.7 C 38 % 15.64 C
57 17-07-2014 17:40:00 31.9 C 38 % 15.81 C
58 17-07-2014 17:45:00 32.1 C 39 % 16.4 C
59 17-07-2014 17:50:00 32.1 C 42 % 17.57 C
60 17-07-2014 17:55:00 32.2 C 44 % 18.39 C
61 17-07-2014 18:00:00 31.8 C 46 % 18.74 C
62 17-07-2014 18:05:00 31.7 C 39 % 16.04 C
63 17-07-2014 18:10:00 31.6 C 43 % 17.49 C
64 17-07-2014 18:15:00 31.4 C 41 % 16.56 C
65 17-07-2014 18:20:00 31.7 C 39 % 16.04 C
66 17-07-2014 18:25:00 32 C 39 % 16.31 C
67 17-07-2014 18:30:00 32 C 49 % 19.94 C
68 17-07-2014 18:35:00 31.3 C 43 % 17.22 C
69 17-07-2014 18:40:00 30.7 C 53 % 20.02 C
70 17-07-2014 18:45:00 30.2 C 44 % 16.59 C
71 17-07-2014 18:50:00 30.3 C 46 % 17.39 C
72 17-07-2014 18:55:00 30.7 C 52 % 19.71 C
73 17-07-2014 19:00:00 30.7 C 54 % 20.32 C
74 17-07-2014 19:05:00 29.7 C 56 % 19.98 C
75 17-07-2014 19:10:00 28.9 C 59 % 20.08 C
Sensor: Nr:Datum:Temp:Feuchte:Taupunkt:
Aussen-T/F 76 17-07-2014 19:15:00 28.4 C 60 % 19.88 C
77 17-07-2014 19:20:00 28 C 62 % 20.04 C
78 17-07-2014 19:25:00 27.5 C 63 % 19.82 C
79 17-07-2014 19:30:00 27.1 C 64 % 19.7 C
80 17-07-2014 19:35:00 26.8 C 66 % 19.91 C
81 17-07-2014 19:40:00 26.6 C 66 % 19.72 C
82 17-07-2014 19:45:00 26.4 C 67 % 19.78 C
83 17-07-2014 19:50:00 26.3 C 67 % 19.68 C
84 17-07-2014 19:55:00 26.1 C 68 % 19.73 C
85 17-07-2014 20:00:00 26 C 68 % 19.63 C
86 17-07-2014 20:05:00 25.7 C 68 % 19.35 C
87 17-07-2014 20:10:00 25.3 C 69 % 19.2 C
88 17-07-2014 20:15:00 24.9 C 70 % 19.05 C
89 17-07-2014 20:20:00 24.6 C 72 % 19.21 C
90 17-07-2014 20:25:00 24.4 C 72 % 19.02 C
91 17-07-2014 20:30:00 24.2 C 72 % 18.83 C
92 17-07-2014 20:35:00 24.1 C 73 % 18.96 C
93 17-07-2014 20:40:00 23.9 C 72 % 18.54 C
94 17-07-2014 20:45:00 23.7 C 73 % 18.57 C
95 17-07-2014 20:50:00 23.6 C 73 % 18.48 C
96 17-07-2014 20:55:00 23.4 C 74 % 18.5 C
97 17-07-2014 21:00:00 23.2 C 75 % 18.52 C
98 17-07-2014 21:05:00 23 C 75 % 18.33 C
99 17-07-2014 21:10:00 22.8 C 76 % 18.35 C
100 17-07-2014 21:15:00 22.6 C 77 % 18.36 C
Sensor: Nr:Datum:Temp:Feuchte:Taupunkt:
Aussen-T/F 101 17-07-2014 21:20:00 22.4 C 76 % 17.96 C
102 17-07-2014 21:25:00 22.3 C 77 % 18.07 C
103 17-07-2014 21:30:00 22.2 C 77 % 17.98 C
104 17-07-2014 21:35:00 22.1 C 77 % 17.88 C
105 17-07-2014 21:40:00 22 C 77 % 17.78 C
106 17-07-2014 21:45:00 21.9 C 77 % 17.68 C
107 17-07-2014 21:50:00 21.9 C 78 % 17.89 C
108 17-07-2014 21:55:00 21.8 C 77 % 17.59 C
109 17-07-2014 22:00:00 21.7 C 77 % 17.49 C
110 17-07-2014 22:05:00 21.7 C 78 % 17.7 C
111 17-07-2014 22:10:00 21.6 C 77 % 17.39 C
112 17-07-2014 22:15:00 21.5 C 77 % 17.3 C
113 17-07-2014 22:20:00 21.4 C 78 % 17.4 C
114 17-07-2014 22:25:00 21.3 C 78 % 17.31 C
115 17-07-2014 22:30:00 21.3 C 80 % 17.71 C
116 17-07-2014 22:35:00 21.2 C 80 % 17.61 C
117 17-07-2014 22:40:00 21.2 C 80 % 17.61 C
118 17-07-2014 22:45:00 21.1 C 80 % 17.51 C
119 17-07-2014 22:50:00 20.9 C 80 % 17.32 C
120 17-07-2014 22:55:00 20.9 C 80 % 17.32 C
121 17-07-2014 23:00:00 20.8 C 80 % 17.22 C
122 17-07-2014 23:05:00 20.8 C 81 % 17.42 C
123 17-07-2014 23:10:00 20.8 C 81 % 17.42 C
124 17-07-2014 23:15:00 20.8 C 81 % 17.42 C

Legende:
   Min
   Max


Maximal/Minimal-Werte vom 17.07.2014 - 17.07.2014

Sensor Min Max Avg
Temp
(Aussen-T/F)
14.5 °C
17-07-2014  07:05:00
32.2 °C
17-07-2014  17:55:00
23.78 °C
Feuchte
(Aussen-T/F)
38 %
17-07-2014  17:35:00
95 %
17-07-2014  07:05:00
70.27 %
Taupunkt
(Aussen-T/F)
13.71 C
17-07-2014  07:05:00
20.32 C
17-07-2014  19:00:00
17.14 C

Die Daten stammen von einer Davis Vantage Pro 2 Wetter-Station und werden unter Linux mit der Software wview2wettercgi und aufbereitet. Alle Angaben erfolgen ohne Gewähr für ihre Vollständigkeit oder Richtigkeit.
Kontakt: Rainer Krienke krienke@uni-koblenz.de . Meine Webseiten an der Uni Koblenz oder privat.
Version: $Revision: 0.78 $